createdAt,value
2023-05-18T00:00:36.570Z,100.00
2023-05-18T00:03:05.004Z,100.00
2023-05-18T00:05:34.549Z,100.00
2023-05-18T00:08:03.001Z,100.00
2023-05-18T00:10:31.185Z,100.00
2023-05-18T00:12:59.296Z,100.00
2023-05-18T00:15:29.087Z,100.00
2023-05-18T00:17:58.720Z,100.00
2023-05-18T00:20:27.639Z,100.00
2023-05-18T00:22:55.771Z,100.00
2023-05-18T00:25:24.129Z,100.00
2023-05-18T00:27:52.312Z,100.00
2023-05-18T00:30:20.733Z,100.00
2023-05-18T00:32:50.191Z,100.00
2023-05-18T00:35:21.492Z,100.00
2023-05-18T00:37:49.610Z,100.00
2023-05-18T00:40:21.191Z,100.00
2023-05-18T00:42:49.324Z,100.00
2023-05-18T00:45:17.413Z,100.00
2023-05-18T00:47:45.851Z,100.00
2023-05-18T00:50:15.852Z,100.00
2023-05-18T00:52:45.318Z,100.00
2023-05-18T00:55:14.514Z,100.00
2023-05-18T00:57:44.695Z,100.00
2023-05-18T01:00:14.150Z,100.00
2023-05-18T01:02:45.955Z,100.00
2023-05-18T01:05:18.130Z,100.00
2023-05-18T01:07:46.330Z,100.00
2023-05-18T01:10:16.597Z,100.00
2023-05-18T01:12:50.524Z,100.00
2023-05-18T01:15:21.636Z,100.00
2023-05-18T01:18:04.770Z,100.00
2023-05-18T01:20:39.094Z,100.00
2023-05-18T01:23:22.506Z,100.00
2023-05-18T01:26:06.712Z,100.00
2023-05-18T01:28:35.118Z,100.00
2023-05-18T01:31:03.953Z,100.00
2023-05-18T01:33:32.207Z,100.00
2023-05-18T01:36:00.529Z,100.00
2023-05-18T01:38:30.009Z,100.00
2023-05-18T01:41:04.473Z,100.00
2023-05-18T01:43:37.196Z,100.00
2023-05-18T01:46:10.228Z,100.00
2023-05-18T01:48:41.253Z,100.00
2023-05-18T01:51:15.082Z,100.00
2023-05-18T01:53:47.764Z,100.00
2023-05-18T01:56:16.150Z,100.00
2023-05-18T01:58:46.060Z,100.00
2023-05-18T02:01:16.196Z,100.00
2023-05-18T02:03:45.353Z,100.00
2023-05-18T02:06:13.577Z,100.00
2023-05-18T02:08:41.764Z,100.00
2023-05-18T02:11:09.858Z,100.00
2023-05-18T02:13:37.967Z,100.00
2023-05-18T02:16:08.620Z,100.00
2023-05-18T02:18:37.178Z,100.00
2023-05-18T02:21:05.559Z,100.00
2023-05-18T02:23:34.014Z,100.00
2023-05-18T02:26:02.635Z,100.00
2023-05-18T02:28:30.845Z,100.00
2023-05-18T02:31:08.037Z,100.00
2023-05-18T02:33:40.203Z,100.00
2023-05-18T02:36:13.606Z,100.00
2023-05-18T02:38:42.784Z,100.00
2023-05-18T02:41:12.129Z,100.00
2023-05-18T02:43:40.257Z,100.00
2023-05-18T02:46:11.090Z,100.00
2023-05-18T02:48:39.207Z,100.00
2023-05-18T02:51:07.350Z,100.00
2023-05-18T02:53:35.873Z,100.00
2023-05-18T02:56:05.035Z,100.00
2023-05-18T02:58:33.253Z,100.00
2023-05-18T03:01:03.631Z,100.00
2023-05-18T03:03:33.360Z,100.00
2023-05-18T03:06:02.452Z,100.00
2023-05-18T03:08:31.601Z,100.00
2023-05-18T03:10:59.919Z,100.00
2023-05-18T03:13:27.995Z,100.00
2023-05-18T03:15:56.733Z,100.00
2023-05-18T03:18:25.898Z,100.00
2023-05-18T03:20:56.238Z,100.00
2023-05-18T03:23:24.518Z,100.00
2023-05-18T03:25:54.375Z,100.00
2023-05-18T03:28:22.634Z,100.00
2023-05-18T03:30:50.901Z,100.00
2023-05-18T03:33:19.117Z,100.00
2023-05-18T03:35:48.719Z,100.00
2023-05-18T03:38:18.634Z,100.00
2023-05-18T03:40:46.749Z,100.00
2023-05-18T03:43:17.959Z,100.00
2023-05-18T03:45:46.076Z,100.00
2023-05-18T03:48:14.304Z,100.00
2023-05-18T03:50:42.498Z,100.00
2023-05-18T03:53:10.900Z,100.00
2023-05-18T03:55:41.926Z,100.00
2023-05-18T03:58:10.034Z,100.00
2023-05-18T04:00:38.125Z,100.00
2023-05-18T04:03:06.675Z,100.00
2023-05-18T04:05:35.064Z,100.00
2023-05-18T04:08:03.109Z,100.00
2023-05-18T04:10:31.273Z,100.00
2023-05-18T04:13:00.838Z,100.00
2023-05-18T04:15:29.337Z,100.00
2023-05-18T04:17:57.631Z,100.00
2023-05-18T04:20:28.371Z,100.00
2023-05-18T04:22:57.792Z,100.00
2023-05-18T04:25:28.097Z,100.00
2023-05-18T04:27:57.042Z,100.00
2023-05-18T04:30:29.684Z,100.00
2023-05-18T04:32:58.407Z,100.00
2023-05-18T04:35:27.060Z,100.00
2023-05-18T04:37:55.343Z,100.00
2023-05-18T04:40:25.384Z,100.00
2023-05-18T04:42:53.699Z,100.00
2023-05-18T04:45:22.906Z,100.00
2023-05-18T04:47:55.267Z,100.00
2023-05-18T04:50:24.733Z,100.00
2023-05-18T04:52:53.987Z,100.00
2023-05-18T04:55:26.406Z,100.00
2023-05-18T04:57:56.918Z,100.00
2023-05-18T05:00:26.485Z,100.00
2023-05-18T05:02:57.293Z,100.00
2023-05-18T05:05:26.522Z,100.00
2023-05-18T05:07:55.842Z,100.00
2023-05-18T05:10:24.702Z,100.00
2023-05-18T05:12:53.149Z,100.00
2023-05-18T05:15:21.883Z,100.00
2023-05-18T05:17:50.215Z,100.00
2023-05-18T05:20:20.406Z,100.00
2023-05-18T05:22:48.707Z,100.00
2023-05-18T05:25:16.900Z,100.00
2023-05-18T05:27:45.371Z,100.00
2023-05-18T05:30:14.014Z,100.00
2023-05-18T05:32:42.213Z,100.00
2023-05-18T05:35:11.118Z,100.00
2023-05-18T05:37:40.764Z,100.00
2023-05-18T05:40:10.257Z,100.00
2023-05-18T05:42:38.462Z,100.00
2023-05-18T05:45:07.973Z,100.00
2023-05-18T05:47:36.270Z,100.00
2023-05-18T05:50:04.786Z,100.00
2023-05-18T05:52:33.920Z,100.00
2023-05-18T05:55:03.519Z,100.00
2023-05-18T05:57:31.696Z,100.00
2023-05-18T05:59:59.924Z,100.00
2023-05-18T06:02:28.489Z,100.00
2023-05-18T06:04:56.608Z,100.00
2023-05-18T06:07:24.973Z,100.00
2023-05-18T06:09:53.278Z,100.00
2023-05-18T06:12:22.861Z,100.00
2023-05-18T06:14:52.955Z,100.00
2023-05-18T06:17:21.410Z,100.00
2023-05-18T06:19:49.522Z,100.00
2023-05-18T06:22:18.198Z,100.00
2023-05-18T06:24:46.576Z,100.00
2023-05-18T06:27:14.656Z,100.00
2023-05-18T06:29:44.219Z,100.00
2023-05-18T06:32:13.514Z,100.00
2023-05-18T06:34:42.543Z,100.00
2023-05-18T06:37:11.593Z,100.00
2023-05-18T06:39:40.442Z,100.00
2023-05-18T06:42:11.353Z,100.00
2023-05-18T06:44:39.585Z,100.00
2023-05-18T06:47:09.403Z,100.00
2023-05-18T06:49:37.516Z,100.00
2023-05-18T06:52:06.176Z,100.00
2023-05-18T06:54:34.336Z,100.00
2023-05-18T06:57:02.671Z,100.00
2023-05-18T06:59:31.001Z,100.00
2023-05-18T07:01:59.241Z,100.00
2023-05-18T07:04:28.780Z,100.00
2023-05-18T07:06:57.012Z,100.00
2023-05-18T07:09:27.393Z,100.00
2023-05-18T07:11:55.576Z,100.00
2023-05-18T07:14:26.627Z,100.00
2023-05-18T07:16:54.824Z,100.00
2023-05-18T07:19:23.622Z,100.00
2023-05-18T07:21:53.223Z,96.98
2023-05-18T07:24:21.364Z,94.23
2023-05-18T07:26:49.517Z,91.46
2023-05-18T07:29:17.720Z,91.39
2023-05-18T07:31:45.904Z,88.41
2023-05-18T07:34:16.217Z,89.63
2023-05-18T07:36:44.370Z,89.21
2023-05-18T07:39:19.395Z,90.52
2023-05-18T07:41:48.563Z,89.09
2023-05-18T07:44:16.910Z,85.99
2023-05-18T07:46:45.242Z,85.69
2023-05-18T07:49:13.466Z,87.07
2023-05-18T07:51:42.462Z,80.91
2023-05-18T07:54:10.598Z,80.72
2023-05-18T07:56:42.433Z,77.01
2023-05-18T07:59:10.935Z,78.95
2023-05-18T08:01:39.984Z,75.84
2023-05-18T08:04:08.348Z,76.19
2023-05-18T08:06:36.795Z,74.48
2023-05-18T08:09:05.014Z,76.75
2023-05-18T08:11:33.158Z,73.27
2023-05-18T08:14:05.468Z,72.35
2023-05-18T08:16:37.306Z,72.48
2023-05-18T08:19:05.654Z,70.21
2023-05-18T08:21:34.669Z,70.62
2023-05-18T08:24:04.061Z,68.09
2023-05-18T08:26:32.204Z,69.66
2023-05-18T08:29:09.609Z,65.38
2023-05-18T08:31:40.279Z,66.05
2023-05-18T08:34:09.404Z,67.04
2023-05-18T08:36:38.406Z,64.02
2023-05-18T08:39:06.679Z,64.02
2023-05-18T08:41:42.163Z,61.65
2023-05-18T08:44:16.481Z,62.61
2023-05-18T08:46:51.191Z,62.13
2023-05-18T08:49:21.938Z,60.69
2023-05-18T08:51:56.896Z,61.55
2023-05-18T08:54:26.187Z,61.76
2023-05-18T08:56:54.826Z,63.07
2023-05-18T08:59:25.899Z,61.78
2023-05-18T09:01:55.653Z,61.34
2023-05-18T09:04:25.090Z,60.88
2023-05-18T09:06:55.539Z,61.85
2023-05-18T09:09:25.393Z,62.39
2023-05-18T09:11:54.073Z,63.17
2023-05-18T09:14:25.835Z,61.98
2023-05-18T09:16:55.582Z,62.23
2023-05-18T09:19:24.736Z,62.78
2023-05-18T09:21:53.149Z,64.06
2023-05-18T09:24:24.584Z,63.93
2023-05-18T09:26:53.141Z,63.08
2023-05-18T09:29:22.649Z,62.68
2023-05-18T09:31:52.004Z,61.53
2023-05-18T09:34:21.796Z,62.65
2023-05-18T09:36:53.109Z,62.89
2023-05-18T09:39:21.431Z,63.56
2023-05-18T09:41:56.887Z,61.83
2023-05-18T09:44:32.419Z,62.50
2023-05-18T09:47:00.552Z,61.90
2023-05-18T09:49:32.051Z,61.09
2023-05-18T09:52:01.097Z,62.20
2023-05-18T09:54:29.914Z,61.08
2023-05-18T09:57:09.655Z,60.56
2023-05-18T09:59:39.280Z,61.21
2023-05-18T10:02:09.066Z,61.19
2023-05-18T10:04:40.107Z,61.30
2023-05-18T10:07:13.125Z,59.77
2023-05-18T10:09:41.469Z,60.25
2023-05-18T10:12:13.324Z,59.37
2023-05-18T10:14:42.834Z,60.96
2023-05-18T10:17:15.488Z,58.14
2023-05-18T10:19:49.128Z,58.35
2023-05-18T10:22:18.668Z,56.89
2023-05-18T10:24:51.820Z,57.38
2023-05-18T10:27:25.427Z,55.38
2023-05-18T10:29:55.176Z,55.21
2023-05-18T10:32:26.612Z,57.19
2023-05-18T10:34:57.934Z,56.37
2023-05-18T10:37:30.784Z,55.66
2023-05-18T10:40:01.326Z,57.47
2023-05-18T10:42:31.827Z,55.19
2023-05-18T10:45:01.693Z,54.95
2023-05-18T10:47:30.381Z,54.00
2023-05-18T10:50:00.680Z,54.85
2023-05-18T10:52:32.040Z,56.08
2023-05-18T10:55:01.104Z,55.85
2023-05-18T10:57:35.763Z,52.67
2023-05-18T11:00:07.804Z,52.74
2023-05-18T11:02:42.679Z,52.89
2023-05-18T11:05:13.674Z,53.02
2023-05-18T11:07:46.465Z,52.97
2023-05-18T11:10:15.476Z,52.45
2023-05-18T11:12:46.505Z,51.24
2023-05-18T11:15:14.730Z,52.03
2023-05-18T11:17:43.854Z,50.76
2023-05-18T11:20:18.616Z,51.97
2023-05-18T11:22:51.607Z,51.98
2023-05-18T11:25:43.597Z,50.04
2023-05-18T11:28:13.744Z,49.04
2023-05-18T11:30:52.273Z,51.05
2023-05-18T11:33:26.170Z,50.93
2023-05-18T11:36:07.448Z,50.90
2023-05-18T11:38:50.522Z,48.38
2023-05-18T11:41:29.184Z,48.46
2023-05-18T11:44:07.072Z,51.22
2023-05-18T11:46:35.417Z,50.33
2023-05-18T11:49:08.769Z,49.00
2023-05-18T11:51:58.553Z,49.16
2023-05-18T11:54:27.520Z,48.47
2023-05-18T11:56:56.034Z,47.75
2023-05-18T11:59:34.452Z,48.32
2023-05-18T12:02:04.034Z,47.61
2023-05-18T12:04:33.512Z,45.69
2023-05-18T12:07:06.729Z,46.05
2023-05-18T12:09:35.532Z,46.02
2023-05-18T12:12:03.946Z,46.23
2023-05-18T12:14:33.232Z,44.20
2023-05-18T12:17:02.541Z,44.63
2023-05-18T12:19:30.582Z,45.51
2023-05-18T12:21:59.189Z,46.27
2023-05-18T12:24:29.908Z,43.52
2023-05-18T12:27:06.838Z,45.17
2023-05-18T12:29:36.041Z,43.93
2023-05-18T12:32:08.193Z,44.04
2023-05-18T12:34:36.776Z,44.89
2023-05-18T12:37:05.263Z,44.30
2023-05-18T12:39:37.867Z,43.97
2023-05-18T12:42:13.016Z,44.52
2023-05-18T12:44:43.907Z,45.65
2023-05-18T12:47:13.194Z,45.34
2023-05-18T12:49:42.958Z,45.24
2023-05-18T12:52:13.358Z,45.43
2023-05-18T12:54:58.755Z,45.91
2023-05-18T12:57:31.040Z,45.03
2023-05-18T12:59:59.659Z,44.67
2023-05-18T13:02:32.772Z,44.72
2023-05-18T13:05:06.127Z,43.81
2023-05-18T13:07:36.609Z,43.92
2023-05-18T13:10:10.768Z,42.95
2023-05-18T13:12:46.401Z,43.01
2023-05-18T13:15:16.735Z,42.66
2023-05-18T13:17:58.776Z,43.84
2023-05-18T13:20:35.193Z,43.54
2023-05-18T13:23:05.764Z,45.34
2023-05-18T13:25:35.435Z,43.20
2023-05-18T13:28:03.968Z,44.07
2023-05-18T13:30:32.228Z,43.20
2023-05-18T13:33:01.478Z,42.77
2023-05-18T13:35:32.724Z,42.34
2023-05-18T13:38:01.209Z,41.96
2023-05-18T13:40:29.486Z,42.20
2023-05-18T13:42:59.020Z,41.99
2023-05-18T13:45:27.303Z,41.16
2023-05-18T13:47:55.445Z,42.28
2023-05-18T13:50:27.157Z,41.35
2023-05-18T13:52:55.405Z,40.97
2023-05-18T13:55:23.648Z,41.13
2023-05-18T13:57:51.903Z,41.20
2023-05-18T14:00:22.077Z,41.42
2023-05-18T14:02:50.360Z,41.93
2023-05-18T14:05:22.483Z,39.63
2023-05-18T14:07:52.400Z,39.58
2023-05-18T14:10:20.812Z,38.87
2023-05-18T14:12:48.937Z,38.96
2023-05-18T14:15:17.293Z,39.86
2023-05-18T14:17:46.948Z,39.34
2023-05-18T14:20:15.115Z,38.89
2023-05-18T14:22:43.243Z,38.32
2023-05-18T14:25:11.400Z,37.80
2023-05-18T14:27:41.825Z,38.14
2023-05-18T14:30:13.219Z,39.69
2023-05-18T14:32:41.479Z,39.52
2023-05-18T14:35:11.486Z,37.08
2023-05-18T14:37:39.617Z,38.90
2023-05-18T14:40:09.246Z,38.52
2023-05-18T14:42:37.630Z,38.12
2023-05-18T14:45:06.440Z,38.22
2023-05-18T14:47:34.620Z,37.75
2023-05-18T14:50:02.829Z,36.94
2023-05-18T14:52:32.298Z,37.05
2023-05-18T14:55:00.748Z,36.71
2023-05-18T14:57:28.903Z,36.32
2023-05-18T14:59:57.017Z,37.26
2023-05-18T15:02:25.362Z,36.26
2023-05-18T15:04:53.461Z,36.71
2023-05-18T15:07:21.912Z,36.41
2023-05-18T15:09:51.573Z,36.70
2023-05-18T15:12:20.657Z,37.25
2023-05-18T15:14:48.767Z,38.22
2023-05-18T15:17:17.984Z,37.59
2023-05-18T15:19:47.138Z,37.20
2023-05-18T15:22:15.330Z,37.60
2023-05-18T15:24:43.625Z,36.83
2023-05-18T15:27:15.546Z,38.15
2023-05-18T15:29:43.662Z,38.36
2023-05-18T15:32:11.770Z,37.21
2023-05-18T15:34:40.425Z,36.26
2023-05-18T15:37:08.545Z,37.29
2023-05-18T15:39:38.631Z,36.76
2023-05-18T15:42:07.283Z,35.71
2023-05-18T15:44:36.874Z,36.55
2023-05-18T15:47:05.742Z,37.23
2023-05-18T15:49:33.888Z,38.26
2023-05-18T15:52:02.258Z,38.39
2023-05-18T15:54:30.425Z,38.96
2023-05-18T15:57:01.979Z,38.76
2023-05-18T15:59:30.172Z,39.04
2023-05-18T16:01:59.627Z,40.14
2023-05-18T16:04:27.774Z,38.74
2023-05-18T16:06:56.253Z,38.69
2023-05-18T16:09:24.342Z,38.95
2023-05-18T16:11:55.149Z,39.25
2023-05-18T16:14:26.095Z,39.38
2023-05-18T16:16:54.275Z,39.82
2023-05-18T16:19:23.791Z,40.83
2023-05-18T16:21:51.976Z,39.89
2023-05-18T16:24:20.115Z,41.17
2023-05-18T16:26:48.396Z,40.89
2023-05-18T16:29:16.471Z,40.63
2023-05-18T16:31:44.946Z,40.51
2023-05-18T16:34:13.326Z,41.46
2023-05-18T16:36:45.684Z,41.43
2023-05-18T16:39:13.842Z,42.37
2023-05-18T16:41:41.976Z,42.69
2023-05-18T16:44:10.127Z,43.04
2023-05-18T16:46:38.270Z,44.32
2023-05-18T16:49:06.403Z,42.60
2023-05-18T16:51:34.540Z,43.90
2023-05-18T16:54:05.728Z,43.22
2023-05-18T16:56:35.424Z,43.46
2023-05-18T16:59:03.648Z,42.78
2023-05-18T17:01:32.656Z,42.48
2023-05-18T17:04:00.942Z,43.65
2023-05-18T17:06:29.199Z,44.29
2023-05-18T17:08:58.777Z,44.22
2023-05-18T17:11:28.626Z,44.43
2023-05-18T17:13:57.826Z,44.75
2023-05-18T17:16:27.304Z,44.63
2023-05-18T17:18:56.295Z,45.11
2023-05-18T17:21:26.837Z,45.89
2023-05-18T17:23:55.110Z,45.40
2023-05-18T17:26:25.503Z,45.93
2023-05-18T17:28:55.089Z,46.44
2023-05-18T17:31:23.240Z,46.00
2023-05-18T17:33:51.423Z,47.01
2023-05-18T17:36:22.038Z,45.87
2023-05-18T17:38:50.229Z,46.86
2023-05-18T17:41:19.674Z,45.31
2023-05-18T17:43:48.191Z,46.49
2023-05-18T17:46:17.805Z,46.94
2023-05-18T17:48:45.935Z,47.74
2023-05-18T17:51:14.073Z,47.71
2023-05-18T17:53:42.820Z,48.41
2023-05-18T17:56:12.265Z,48.41
2023-05-18T17:58:43.323Z,49.00
2023-05-18T18:01:12.250Z,49.67
2023-05-18T18:03:41.907Z,49.98
2023-05-18T18:06:12.371Z,49.61
2023-05-18T18:08:45.112Z,50.06
2023-05-18T18:11:13.403Z,50.76
2023-05-18T18:13:41.528Z,51.42
2023-05-18T18:16:09.740Z,51.72
2023-05-18T18:18:38.278Z,51.96
2023-05-18T18:21:08.420Z,52.58
2023-05-18T18:23:37.937Z,52.85
2023-05-18T18:26:09.305Z,52.97
2023-05-18T18:28:39.854Z,53.96
2023-05-18T18:31:08.033Z,54.18
2023-05-18T18:33:36.188Z,54.79
2023-05-18T18:36:05.805Z,55.35
2023-05-18T18:38:37.865Z,55.68
2023-05-18T18:41:06.184Z,56.00
2023-05-18T18:43:35.231Z,56.02
2023-05-18T18:46:03.529Z,56.17
2023-05-18T18:48:31.758Z,56.83
2023-05-18T18:50:59.824Z,56.31
2023-05-18T18:53:27.973Z,56.96
2023-05-18T18:55:59.664Z,56.80
2023-05-18T18:58:28.070Z,57.38
2023-05-18T19:00:56.160Z,57.34
2023-05-18T19:03:24.282Z,57.55
2023-05-18T19:05:52.363Z,58.20
2023-05-18T19:08:20.585Z,58.68
2023-05-18T19:10:48.719Z,60.21
2023-05-18T19:13:18.225Z,61.08
2023-05-18T19:15:50.320Z,61.36
2023-05-18T19:18:18.683Z,61.36
2023-05-18T19:20:46.885Z,61.72
2023-05-18T19:23:16.233Z,62.91
2023-05-18T19:25:44.658Z,62.75
2023-05-18T19:28:12.871Z,63.25
2023-05-18T19:30:42.393Z,63.52
2023-05-18T19:33:10.789Z,64.41
2023-05-18T19:35:39.174Z,64.29
2023-05-18T19:38:07.301Z,65.24
2023-05-18T19:40:35.440Z,66.23
2023-05-18T19:43:03.706Z,66.65
2023-05-18T19:45:33.779Z,67.48
2023-05-18T19:48:03.521Z,67.73
2023-05-18T19:50:31.735Z,68.67
2023-05-18T19:52:59.853Z,69.43
2023-05-18T19:55:27.962Z,70.25
2023-05-18T19:57:56.353Z,70.58
2023-05-18T20:00:25.671Z,71.41
2023-05-18T20:02:53.879Z,72.44
2023-05-18T20:05:25.586Z,72.17
2023-05-18T20:07:53.711Z,72.57
2023-05-18T20:10:21.928Z,72.86
2023-05-18T20:12:50.322Z,72.67
2023-05-18T20:15:19.116Z,73.02
2023-05-18T20:17:47.327Z,73.42
2023-05-18T20:20:15.477Z,73.35
2023-05-18T20:22:47.273Z,74.47
2023-05-18T20:25:15.687Z,74.04
2023-05-18T20:27:44.086Z,75.11
2023-05-18T20:30:12.606Z,76.38
2023-05-18T20:32:40.836Z,76.56
2023-05-18T20:35:12.781Z,77.47
2023-05-18T20:37:41.618Z,77.63
2023-05-18T20:40:13.434Z,78.49
2023-05-18T20:42:41.779Z,79.96
2023-05-18T20:45:10.809Z,80.40
2023-05-18T20:47:38.952Z,80.81
2023-05-18T20:50:09.156Z,82.19
2023-05-18T20:52:39.736Z,81.98
2023-05-18T20:55:09.175Z,82.05
2023-05-18T20:57:40.136Z,82.42
2023-05-18T21:00:10.233Z,83.13
2023-05-18T21:02:38.459Z,84.15
2023-05-18T21:05:07.272Z,83.64
2023-05-18T21:07:40.435Z,84.96
2023-05-18T21:10:09.272Z,85.53
2023-05-18T21:12:39.123Z,88.01
2023-05-18T21:15:08.452Z,91.66
2023-05-18T21:17:36.593Z,97.70
2023-05-18T21:20:05.848Z,99.53
2023-05-18T21:22:33.944Z,100.00
2023-05-18T21:25:06.306Z,100.00
2023-05-18T21:27:34.721Z,100.00
2023-05-18T21:30:08.741Z,100.00
2023-05-18T21:32:37.052Z,100.00
2023-05-18T21:35:06.332Z,100.00
2023-05-18T21:37:34.430Z,100.00
2023-05-18T21:40:03.210Z,100.00
2023-05-18T21:42:32.734Z,100.00
2023-05-18T21:45:01.045Z,100.00
2023-05-18T21:47:30.644Z,100.00
2023-05-18T21:49:58.781Z,100.00
2023-05-18T21:52:26.952Z,100.00
2023-05-18T21:54:55.146Z,100.00
2023-05-18T21:57:23.499Z,100.00
2023-05-18T21:59:51.657Z,100.00
2023-05-18T22:02:19.741Z,100.00
2023-05-18T22:04:49.470Z,100.00
2023-05-18T22:07:17.680Z,100.00
2023-05-18T22:09:46.480Z,100.00
2023-05-18T22:12:14.542Z,100.00
2023-05-18T22:14:42.647Z,100.00
2023-05-18T22:17:10.850Z,100.00
2023-05-18T22:19:39.185Z,100.00
2023-05-18T22:22:13.808Z,100.00
2023-05-18T22:24:45.059Z,100.00
2023-05-18T22:27:13.205Z,100.00
2023-05-18T22:29:44.233Z,100.00
2023-05-18T22:32:12.491Z,100.00
2023-05-18T22:34:40.599Z,100.00
2023-05-18T22:37:12.629Z,100.00
2023-05-18T22:39:43.775Z,100.00
2023-05-18T22:42:12.137Z,100.00
2023-05-18T22:44:40.467Z,100.00
2023-05-18T22:47:09.414Z,100.00
2023-05-18T22:49:37.492Z,100.00
2023-05-18T22:52:06.728Z,100.00
2023-05-18T22:54:36.653Z,100.00
2023-05-18T22:57:05.173Z,100.00
2023-05-18T22:59:33.200Z,100.00
2023-05-18T23:02:01.360Z,100.00
2023-05-18T23:04:29.579Z,100.00
2023-05-18T23:06:58.088Z,100.00
2023-05-18T23:09:27.163Z,100.00
2023-05-18T23:11:56.781Z,100.00
2023-05-18T23:14:25.296Z,100.00
2023-05-18T23:16:58.399Z,100.00
2023-05-18T23:19:28.874Z,100.00
2023-05-18T23:21:57.645Z,100.00
2023-05-18T23:24:25.840Z,100.00
2023-05-18T23:26:53.990Z,100.00
2023-05-18T23:29:23.451Z,100.00
2023-05-18T23:31:52.419Z,100.00
2023-05-18T23:34:21.065Z,100.00
2023-05-18T23:36:53.907Z,100.00
2023-05-18T23:39:23.255Z,100.00
2023-05-18T23:41:55.437Z,100.00
2023-05-18T23:44:25.768Z,100.00
2023-05-18T23:46:54.861Z,100.00
2023-05-18T23:49:23.556Z,100.00
2023-05-18T23:51:53.214Z,100.00
2023-05-18T23:54:22.434Z,100.00
2023-05-18T23:56:51.620Z,100.00
2023-05-18T23:59:20.538Z,100.00
